AirNav   Air Wisconsin Up To $57,000 Bonus
 
 836 users online  

NE46
(formerly 99Y)
Greeley Municipal Airport
Greeley, Nebraska, USA

GOING TO GREELEY?


FAA INFORMATION EFFECTIVE 03 NOVEMBER 2022

Location

FAA Identifier: NE46
Lat/Long: 41-33-26.9700N 098-32-45.8200W
41-33.449500N 098-32.763667W
41.5574917,-98.5460611
(estimated)
Elevation: 2035 ft. / 620 m (estimated)
Variation: 08E (1985)
From city: 1 mile NW of GREELEY, NE
Time zone: UTC -6 (UTC -5 during Daylight Saving Time)
Zip code: 68842

Airport Operations

Airport use: Private use. Permission required prior to landing
Activation date: 01/1972
Control tower: no
ARTCC: MINNEAPOLIS CENTER
FSS: COLUMBUS FLIGHT SERVICE STATION
Attendance: UNATNDD
Wind indicator: yes
Segmented circle: no

Airport Communications

CTAF: 122.9
WX ASOS at ODX (19 nm W): 119.925 (308-728-7954)

Nearby radio navigation aids

VOR radial/distance  VOR name  Freq  Var
OBHr315/13.9WOLBACH VORTAC114.8007E
GRIr336/36.0GRAND ISLAND VOR/DME112.0007E

 
NDB name  Hdg/Dist  Freq  Var  ID
ORD097/18.535605EODX --- -.. -..-

Airport Services

Parking: hangars
Airframe service: NONE
Powerplant service: NONE
Bottled oxygen: NONE
Bulk oxygen: NONE

Runway Information

Runway 13/31

Dimensions: 2800 x 100 ft. / 853 x 30 m
Surface: turf, in fair condition
Runway edge markings: 13/31 MARKED WITH YELLOW BOUNDARY CONES.
RUNWAY 13  RUNWAY 31
Traffic pattern: leftleft
Obstructions: 4 ft. fence, 100 ft. left of centerline4 ft. fence, 100 ft. left of centerline

Airport Ownership and Management from official FAA records

Ownership: Publicly-owned
Owner: VILLAGE OF GREELEY
PO BOX 330
GREELEY, NE 68842-0330
Phone 308-428-4010
CELL PHONE FOR VILLAGE CLERK, KIM EVERHART: (308) 730-1714
Manager: BRITT J. HARRIS
PO BOX 308
GREELEY, NE 68842-0308
Phone 308-428-5365

Airport Operational Statistics

Aircraft based on the field: 1
Single engine airplanes: 1
    
Aircraft operations: avg 62/month *
87% local general aviation
13% transient general aviation
* for 12-month period ending 30 July 2008

Additional Remarks

FOR CD CTC MINNEAPOLIS ARTCC AT 651-463-5588.

Instrument Procedures

There are no published instrument procedures at NE46.

Some nearby airports with instrument procedures:

KODX - Evelyn Sharp Field Airport (19 nm W)
KBVN - Albion Municipal Airport (24 nm NE)
0F4 - Loup City Municipal Airport (26 nm SW)
KBUB - Cram Field Airport (30 nm NW)
07K - Central City Municipal Airport - Larry Reineke Field (35 nm SE)
 
Loc | Ops | Rwys | IFR | FBO | Links
Com | Nav | Svcs | Stats | Notes
Area around NE46 (Greeley Municipal Airport)
 
Road maps at: MapQuest Bing Google
 
Aerial photo
WARNING: Photo may not be current or correct
Aerial photo of NE46 (Greeley Municipal Airport)
Do you have a better or more recent aerial photo of Greeley Municipal Airport that you would like to share? If so, please send us your photo.

 
Sectional chart

 
Airport distance calculator
Flying to Greeley Municipal Airport? Find the distance to fly.

From to NE46

Sunrise and sunset
Times for 30-Nov-2022
 Local
(UTC-6)
 Zulu
(UTC)
Morning civil twilight07:1113:11
Sunrise07:4113:41
Sunset17:0423:04
Evening civil twilight17:3523:35

Current date and time
Zulu (UTC)  01-Dec-2022 04:15:50
Local (UTC-6)  30-Nov-2022 22:15:50
 
METAR
KODX 
18nm W 
010353Z AUTO 14010KT 10SM CLR M06/M12 A3018 RMK AO2 SLP255 T10561117
KBVN 
24nm NE 
010355Z AUTO 13007KT 10SM CLR M09/M13 A3025 RMK AO2 T10951132
KGRI 
37nm S 
010353Z AUTO 16008KT 10SM CLR M07/M13 A3026 RMK AO2 SLP279 T10671128
TAF
KGRI 
37nm S 
301720Z 3018/0118 28008KT P6SM SKC FM302200 22005KT P6SM FEW250 FM010000 15007KT P6SM SKC FM010600 16012KT P6SM FEW250 WS012/20042KT FM010900 17017G26KT P6SM FEW250 WS014/20055KT FM011600 19017G26KT P6SM FEW250
NOTAMs
Click for the latest NOTAMs
NOTAMs are issued by the DoD/FAA and will open in a separate window not controlled by AirNav.

 

 
 

Would you like to see your business listed on this page?

 If your business provides an interesting product or service to pilots, flight crews, aircraft, or users of the Greeley Municipal Airport, you should consider listing it here.  To start the listing process, click on the button below
 
Add a business
 

Other Pages about Greeley Municipal Airport

Update a link
 
Copyright © AirNav, LLC. All rights reserved. Privacy Policy  Contact